Latest Conditions
At L.F.Wade Int. Airport
Recorded at 1:55 pm
Partly Cloudy
Temp.: 
21°C/70°F
Humidity: 
72%
Wind: 
ENE 10KT
or 12mph
UV Index: 
9
Island Observations
Observations
Tuesday, March 28, 2017

Observations are in local time and taken at least once an hour, or upon the start and end of specified events such as showers and thunderstorms.

Time Sky / Weather Wind Speed/Gusts Temp. R.H. Pressure
     knots (mph)  °C (°F)  %  mb / "Hg
 13:55 Partly Cloudy  ENE 10/0 (12/0) 21(70) 72 1015 / 29.98
 12:55 Partly Cloudy  ENE 11/0 (13/0) 21(69) 70 1016 / 30.00
 11:55 Partly Cloudy  ENE 10/0 (12/0) 21(69) 74 1017 / 30.02
 10:55 Partly Cloudy  E 9/0 (10/0) 20(68) 76 1017 / 30.02
 09:55 Few Clouds  E 11/0 (13/0) 20(69) 80 1017 / 30.02
 08:55 Partly Cloudy  E 8/0 (9/0) 20(68) 82 1017 / 30.02
 07:55 Mostly Cloudy Showers E 12/0 (14/0) 19(66) 84 1017 / 30.02
 07:46 Mostly Cloudy Showers E 12/0 (14/0) 19(66) 84 1017 / 30.02
 07:39 Mostly Cloudy Showers E 10/0 (12/0) 19(67) 80 1017 / 30.02
 06:55 Mostly Cloudy Showers ENE 9/0 (10/0) 19(66) 81 1016 / 30.01
 05:55 Mostly Cloudy Showers E 10/0 (12/0) 19(66) 79 1016 / 29.99
 04:55 Mostly Cloudy  E 9/0 (10/0) 19(65) 78 1016 / 30.00
 03:55 Mostly Cloudy  E 10/0 (12/0) 19(66) 77 1017 / 30.02
 02:55 Overcast  E 11/0 (13/0) 19(66) 76 1017 / 30.04
 01:55 Overcast  E 12/0 (14/0) 19(66) 75 1018 / 30.07
 00:55 Overcast  ESE 11/0 (13/0) 19(66) 75 1019 / 30.09
 23:55 Overcast  ESE 13/0 (15/0) 19(66) 73 1019 / 30.10
 22:55 Overcast  E 13/0 (15/0) 19(66) 72 1020 / 30.11
 22:30 Overcast  E 13/0 (15/0) 19(66) 73 1020 / 30.11
 21:55 Overcast  E 12/0 (14/0) 19(66) 73 1020 / 30.11
 21:42 Overcast  E 13/0 (15/0) 19(66) 72 1020 / 30.11
 20:55 Overcast  ESE 14/0 (16/0) 19(66) 71 1019 / 30.10
 19:55 Overcast  E 14/0 (16/0) 19(66) 74 1019 / 30.10
 18:55 Overcast  E 13/0 (15/0) 19(67) 74 1020 / 30.11
 17:55 Overcast  E 14/0 (16/0) 20(67) 74 1020 / 30.12
 16:55 Overcast  E 14/0 (16/0) 20(68) 71 1021 / 30.14
 15:55 Overcast  E 14/0 (16/0) 20(68) 70 1021 / 30.15
 14:55 Overcast  ESE 12/0 (14/0) 20(69) 71 1021 / 30.16
 13:55 Overcast  ESE 13/0 (15/0) 21(69) 70 1022 / 30.18
 12:55 Overcast  ESE 12/0 (14/0) 20(69) 72 1022 / 30.19
 11:55 Overcast  ESE 12/0 (14/0) 20(68) 71 1023 / 30.21
 10:55 Overcast  ESE 12/0 (14/0) 20(68) 72 1023 / 30.22
 09:55 Mostly Cloudy  E 12/0 (14/0) 20(67) 72 1023 / 30.22
 08:55 Mostly Cloudy  E 12/0 (14/0) 19(66) 74 1023 / 30.21
 07:55 Overcast  E 11/0 (13/0) 18(65) 76 1023 / 30.20
 06:55 Overcast  E 11/0 (13/0) 18(64) 76 1022 / 30.19
 05:55 Overcast  E 11/0 (13/0) 18(65) 75 1022 / 30.19
 04:55 Mostly Cloudy  E 11/0 (13/0) 18(64) 75 1022 / 30.19
 03:55 Overcast  E 9/0 (10/0) 18(65) 75 1023 / 30.20
 03:44 Overcast  E 10/0 (12/0) 18(65) 74 1023 / 30.21
 02:55 Overcast  E 10/0 (12/0) 18(65) 73 1023 / 30.22
 01:55 Overcast  E 10/0 (12/0) 18(65) 72 1024 / 30.24
 00:55 Overcast  E 10/0 (12/0) 18(65) 72 1025 / 30.26
 23:55 Overcast  E 10/0 (12/0) 18(64) 71 1025 / 30.28
 23:25 Overcast  E 10/0 (12/0) 18(64) 71 1025 / 30.28
 22:55 Overcast  E 9/0 (10/0) 18(64) 70 1025 / 30.28
 21:55 Mostly Cloudy  E 10/0 (12/0) 18(64) 69 1026 / 30.29
 20:55 Mostly Cloudy  E 9/0 (10/0) 17(63) 68 1025 / 30.28
 20:18 Mostly Cloudy  ENE 10/0 (12/0) 17(63) 68 1025 / 30.28
 19:55 Mostly Cloudy  ENE 10/0 (12/0) 17(63) 66 1025 / 30.28
 18:55 Overcast  ENE 9/0 (10/0) 18(64) 64 1025 / 30.28
 17:55 Mostly Cloudy  ENE 10/0 (12/0) 18(64) 62 1025 / 30.28
 16:55 Mostly Cloudy  ENE 9/0 (10/0) 18(65) 60 1025 / 30.28
 15:55 Mostly Cloudy  ENE 9/0 (10/0) 18(65) 58 1025 / 30.28
 14:55 Mostly Cloudy  ENE 10/0 (12/0) 19(66) 56 1026 / 30.30
 13:55 Mostly Cloudy  ENE 9/0 (10/0) 19(66) 56 1026 / 30.31
 12:55 Mostly Cloudy  ENE 9/0 (10/0) 19(66) 55 1027 / 30.32
 11:55 Mostly Cloudy  NE 7/0 (8/0) 19(65) 55 1027 / 30.33
 10:55 Mostly Cloudy  ENE 5/0 (6/0) 18(64) 58 1027 / 30.34
 09:55 Mostly Cloudy  NE 4/0 (5/0) 17(63) 59 1027 / 30.34
 08:55 Mostly Cloudy  ENE 5/0 (6/0) 17(62) 63 1027 / 30.33
 07:55 Mostly Cloudy  E 3/0 (3/0) 16(60) 65 1027 / 30.32
 06:55 Mostly Cloudy  NNE 4/0 (5/0) 16(60) 67 1026 / 30.31
 05:55 Mostly Cloudy  ENE 5/0 (6/0) 15(60) 66 1026 / 30.30
 04:55 Mostly Cloudy  E 3/0 (3/0) 15(59) 65 1026 / 30.29
 03:55 Mostly Cloudy  ENE 5/0 (6/0) 16(61) 62 1026 / 30.31
 02:55 Mostly Cloudy  ESE 4/0 (5/0) 16(60) 62 1027 / 30.33
 01:55 Mostly Cloudy  SE 4/0 (5/0) 16(62) 59 1028 / 30.36
 00:55 Mostly Cloudy  E 6/0 (7/0) 17(62) 60 1029 / 30.38
 23:55 Mostly Cloudy  ENE 7/0 (8/0) 17(62) 59 1029 / 30.38
 22:55 Mostly Cloudy  ENE 7/0 (8/0) 16(62) 58 1029 / 30.38
 21:55 Overcast  N 1/0 (1/0) 17(62) 58 1029 / 30.40
 20:55 Overcast  E 3/0 (3/0) 17(62) 59 1029 / 30.40
 19:55 Overcast  ESE 6/0 (7/0) 17(62) 58 1029 / 30.39
 18:55 Mostly Cloudy  ESE 5/0 (6/0) 17(62) 58 1029 / 30.38
 17:55 Mostly Cloudy  E 7/0 (8/0) 17(63) 55 1028 / 30.37
 16:55 Mostly Cloudy  ESE 8/0 (9/0) 17(63) 55 1028 / 30.37
 15:55 Mostly Cloudy  ESE 8/0 (9/0) 18(65) 52 1029 / 30.38
 14:55 Mostly Cloudy  ESE 8/0 (9/0) 18(65) 52 1029 / 30.40
 13:55 Mostly Cloudy  ESE 7/0 (8/0) 18(65) 49 1030 / 30.43
 12:55 Mostly Cloudy  ESE 9/0 (10/0) 18(65) 50 1031 / 30.45
 11:55 Mostly Cloudy  ENE 9/0 (10/0) 18(65) 49 1031 / 30.46
 10:55 Mostly Cloudy  ENE 8/0 (9/0) 16(62) 58 1032 / 30.47
 09:55 Mostly Cloudy  NE 8/0 (9/0) 16(61) 58 1032 / 30.47
 08:55 Mostly Cloudy  NE 8/0 (9/0) 16(60) 58 1031 / 30.46
 07:55 Mostly Cloudy  NE 7/0 (8/0) 15(59) 59 1031 / 30.44
 06:55 Mostly Cloudy  NE 6/0 (7/0) 15(59) 59 1030 / 30.43
 05:55 Mostly Cloudy  E 7/0 (8/0) 15(58) 59 1030 / 30.42
 04:55 Mostly Cloudy  E 6/0 (7/0) 15(58) 58 1030 / 30.42
 03:55 Mostly Cloudy  ESE 10/0 (12/0) 15(59) 58 1030 / 30.42
 02:55 Mostly Cloudy  E 6/0 (7/0) 14(57) 59 1031 / 30.44
 01:55 Partly Cloudy  E 11/0 (13/0) 14(57) 55 1031 / 30.46
 00:55 Mostly Cloudy  ENE 8/0 (9/0) 15(58) 60 1032 / 30.48
 23:55 Mostly Cloudy  NE 7/0 (8/0) 14(58) 56 1033 / 30.50
 22:55 Mostly Cloudy  ENE 11/0 (13/0) 14(57) 53 1033 / 30.51
 21:55 Mostly Cloudy  E 11/0 (13/0) 14(57) 54 1033 / 30.51
 20:55 Mostly Cloudy  NE 11/0 (13/0) 14(57) 55 1033 / 30.50
 19:55 Mostly Cloudy  NNE 13/0 (15/0) 14(58) 58 1033 / 30.49
 18:55 Mostly Cloudy  NNE 11/0 (13/0) 14(58) 53 1033 / 30.49
 17:55 Mostly Cloudy  NE 12/0 (14/0) 14(58) 50 1032 / 30.48
Observations from our AWOS sites are available here (password and username are both 'guest').